createdAt,value
2022-07-28T00:02:04.646Z,98359.58
2022-07-28T00:04:32.910Z,98362.66
2022-07-28T00:06:59.621Z,98365.92
2022-07-28T00:09:28.312Z,98366.11
2022-07-28T00:11:55.201Z,98367.29
2022-07-28T00:14:22.625Z,98368.75
2022-07-28T00:16:49.602Z,98371.25
2022-07-28T00:19:16.600Z,98373.27
2022-07-28T00:21:43.475Z,98376.35
2022-07-28T00:24:10.520Z,98376.47
2022-07-28T00:26:37.477Z,98371.23
2022-07-28T00:29:05.306Z,98370.66
2022-07-28T00:31:32.421Z,98372.02
2022-07-28T00:33:59.277Z,98371.66
2022-07-28T00:36:25.877Z,98370.16
2022-07-28T00:38:52.680Z,98373.52
2022-07-28T00:41:20.676Z,98372.04
2022-07-28T00:43:50.702Z,98374.41
2022-07-28T00:46:19.928Z,98374.25
2022-07-28T00:48:54.181Z,98367.52
2022-07-28T00:51:23.458Z,98366.56
2022-07-28T00:53:51.141Z,98364.84
2022-07-28T00:56:18.982Z,98362.80
2022-07-28T00:58:46.555Z,98367.95
2022-07-28T01:01:15.330Z,98369.09
2022-07-28T01:03:44.727Z,98374.37
2022-07-28T01:06:23.171Z,98370.08
2022-07-28T01:08:56.583Z,98369.22
2022-07-28T01:11:32.162Z,98369.89
2022-07-28T01:14:47.772Z,98374.42
2022-07-28T01:17:25.163Z,98374.70
2022-07-28T01:19:54.765Z,98375.95
2022-07-28T01:22:25.496Z,98369.40
2022-07-28T01:25:06.146Z,98373.35
2022-07-28T01:27:50.973Z,98380.73
2022-07-28T01:30:41.359Z,98376.17
2022-07-28T01:33:16.411Z,98377.34
2022-07-28T01:35:59.051Z,98377.92
2022-07-28T01:38:27.467Z,98379.48
2022-07-28T01:40:56.776Z,98380.69
2022-07-28T01:43:26.418Z,98385.05
2022-07-28T01:45:55.690Z,98391.15
2022-07-28T01:48:24.950Z,98393.69
2022-07-28T01:50:54.417Z,98397.97
2022-07-28T01:53:22.117Z,98395.38
2022-07-28T01:55:50.756Z,98395.83
2022-07-28T01:58:20.374Z,98398.49
2022-07-28T02:00:50.238Z,98402.71
2022-07-28T02:03:19.685Z,98405.09
2022-07-28T02:05:49.266Z,98403.71
2022-07-28T02:08:19.456Z,98407.08
2022-07-28T02:10:48.680Z,98407.84
2022-07-28T02:13:15.542Z,98408.85
2022-07-28T02:15:42.768Z,98409.31
2022-07-28T02:18:11.055Z,98409.48
2022-07-28T02:20:40.496Z,98412.27
2022-07-28T02:23:08.493Z,98416.17
2022-07-28T02:25:38.063Z,98412.60
2022-07-28T02:28:08.111Z,98416.06
2022-07-28T02:30:41.107Z,98418.14
2022-07-28T02:33:29.573Z,98414.48
2022-07-28T02:36:25.787Z,98411.68
2022-07-28T02:38:56.306Z,98410.52
2022-07-28T02:41:27.265Z,98406.88
2022-07-28T02:43:55.544Z,98405.80
2022-07-28T02:46:27.750Z,98395.83
2022-07-28T02:49:04.961Z,98391.70
2022-07-28T02:51:34.825Z,98391.77
2022-07-28T02:54:03.087Z,98396.29
2022-07-28T02:56:31.282Z,98397.64
2022-07-28T02:58:59.048Z,98403.48
2022-07-28T03:01:26.601Z,98412.45
2022-07-28T03:03:55.373Z,98420.95
2022-07-28T03:06:28.351Z,98425.16
2022-07-28T03:08:56.787Z,98426.74
2022-07-28T03:11:23.834Z,98431.44
2022-07-28T03:13:50.476Z,98429.02
2022-07-28T03:16:17.687Z,98438.80
2022-07-28T03:18:44.476Z,98439.05
2022-07-28T03:21:11.119Z,98447.85
2022-07-28T03:23:43.536Z,98450.00
2022-07-28T03:26:21.564Z,98452.15
2022-07-28T03:28:49.882Z,98455.63
2022-07-28T03:31:20.523Z,98454.11
2022-07-28T03:33:48.724Z,98458.11
2022-07-28T03:36:21.938Z,98464.09
2022-07-28T03:39:17.636Z,98461.63
2022-07-28T03:41:46.193Z,98465.77
2022-07-28T03:44:14.690Z,98463.83
2022-07-28T03:46:54.262Z,98467.73
2022-07-28T03:49:20.936Z,98468.50
2022-07-28T03:51:48.174Z,98469.31
2022-07-28T03:54:15.261Z,98466.59
2022-07-28T03:56:42.144Z,98469.83
2022-07-28T03:59:08.681Z,98467.17
2022-07-28T04:01:35.345Z,98465.03
2022-07-28T04:04:02.216Z,98465.02
2022-07-28T04:06:28.899Z,98468.45
2022-07-28T04:08:55.529Z,98465.45
2022-07-28T04:11:23.805Z,98464.46
2022-07-28T04:13:50.423Z,98462.09
2022-07-28T04:16:17.065Z,98464.20
2022-07-28T04:18:43.804Z,98466.82
2022-07-28T04:21:10.496Z,98469.73
2022-07-28T04:23:37.264Z,98474.49
2022-07-28T04:26:04.141Z,98477.70
2022-07-28T04:28:31.287Z,98482.83
2022-07-28T04:30:58.250Z,98483.20
2022-07-28T04:33:25.160Z,98481.14
2022-07-28T04:35:52.910Z,98480.02
2022-07-28T04:38:19.942Z,98483.41
2022-07-28T04:40:47.881Z,98487.64
2022-07-28T04:43:14.495Z,98489.58
2022-07-28T04:45:53.443Z,98487.64
2022-07-28T04:48:22.449Z,98490.71
2022-07-28T04:50:49.163Z,98486.73
2022-07-28T04:53:15.730Z,98482.70
2022-07-28T04:55:42.593Z,98479.95
2022-07-28T04:58:09.458Z,98485.88
2022-07-28T05:00:36.203Z,98486.48
2022-07-28T05:03:02.841Z,98482.89
2022-07-28T05:05:29.622Z,98485.60
2022-07-28T05:07:56.150Z,98484.03
2022-07-28T05:10:22.731Z,98489.95
2022-07-28T05:12:49.414Z,98490.82
2022-07-28T05:15:16.089Z,98493.27
2022-07-28T05:17:42.636Z,98496.17
2022-07-28T05:20:10.634Z,98495.73
2022-07-28T05:22:44.316Z,98497.04
2022-07-28T05:25:18.849Z,98499.36
2022-07-28T05:27:46.812Z,98503.33
2022-07-28T05:30:14.227Z,98502.58
2022-07-28T05:32:41.658Z,98502.72
2022-07-28T05:35:08.812Z,98508.03
2022-07-28T05:37:36.274Z,98505.05
2022-07-28T05:40:11.723Z,98516.50
2022-07-28T05:42:38.368Z,98515.39
2022-07-28T05:45:16.014Z,98520.73
2022-07-28T05:47:53.160Z,98524.77
2022-07-28T05:50:23.451Z,98530.04
2022-07-28T05:52:50.215Z,98534.87
2022-07-28T05:55:17.261Z,98529.92
2022-07-28T05:57:44.282Z,98530.90
2022-07-28T06:00:14.205Z,98526.44
2022-07-28T06:02:42.389Z,98530.13
2022-07-28T06:05:09.719Z,98533.61
2022-07-28T06:07:42.390Z,98536.09
2022-07-28T06:10:12.393Z,98540.80
2022-07-28T06:12:43.485Z,98545.62
2022-07-28T06:15:19.022Z,98547.32
2022-07-28T06:17:45.792Z,98547.04
2022-07-28T06:20:13.536Z,98553.06
2022-07-28T06:22:43.277Z,98557.71
2022-07-28T06:25:14.026Z,98555.96
2022-07-28T06:27:40.846Z,98553.02
2022-07-28T06:30:08.559Z,98551.98
2022-07-28T06:32:35.176Z,98551.66
2022-07-28T06:35:01.821Z,98552.01
2022-07-28T06:37:28.663Z,98550.91
2022-07-28T06:39:55.221Z,98551.75
2022-07-28T06:42:21.848Z,98553.40
2022-07-28T06:44:58.768Z,98551.41
2022-07-28T06:47:27.139Z,98547.94
2022-07-28T06:49:53.852Z,98548.65
2022-07-28T06:52:20.495Z,98551.68
2022-07-28T06:54:47.762Z,98553.05
2022-07-28T06:57:15.677Z,98557.41
2022-07-28T06:59:43.912Z,98559.02
2022-07-28T07:02:10.755Z,98562.98
2022-07-28T07:04:37.505Z,98561.91
2022-07-28T07:07:14.810Z,98561.48
2022-07-28T07:09:44.518Z,98563.52
2022-07-28T07:12:11.259Z,98561.38
2022-07-28T07:14:37.908Z,98558.92
2022-07-28T07:17:05.150Z,98557.59
2022-07-28T07:19:32.201Z,98562.16
2022-07-28T07:21:58.934Z,98558.64
2022-07-28T07:24:25.524Z,98556.40
2022-07-28T07:26:52.434Z,98556.38
2022-07-28T07:29:19.002Z,98558.33
2022-07-28T07:31:45.597Z,98559.98
2022-07-28T07:34:12.621Z,98565.80
2022-07-28T07:36:39.538Z,98567.83
2022-07-28T07:39:06.667Z,98567.16
2022-07-28T07:41:33.414Z,98572.19
2022-07-28T07:43:59.970Z,98566.15
2022-07-28T07:46:26.577Z,98569.50
2022-07-28T07:48:53.265Z,98568.41
2022-07-28T07:51:19.979Z,98570.89
2022-07-28T07:53:46.621Z,98573.80
2022-07-28T07:56:13.267Z,98575.75
2022-07-28T07:58:40.011Z,98573.91
2022-07-28T08:01:06.862Z,98574.17
2022-07-28T08:03:33.502Z,98573.16
2022-07-28T08:06:02.263Z,98576.18
2022-07-28T08:08:28.861Z,98577.47
2022-07-28T08:10:55.645Z,98580.48
2022-07-28T08:13:22.149Z,98582.31
2022-07-28T08:15:49.123Z,98587.46
2022-07-28T08:18:15.820Z,98588.11
2022-07-28T08:20:42.376Z,98590.23
2022-07-28T08:23:09.409Z,98589.52
2022-07-28T08:25:37.184Z,98589.09
2022-07-28T08:28:04.537Z,98588.41
2022-07-28T08:30:32.940Z,98586.67
2022-07-28T08:33:00.495Z,98585.13
2022-07-28T08:35:35.591Z,98587.98
2022-07-28T08:38:06.153Z,98588.89
2022-07-28T08:40:32.814Z,98592.18
2022-07-28T08:43:14.600Z,98587.84
2022-07-28T08:45:43.633Z,98589.27
2022-07-28T08:48:11.562Z,98587.83
2022-07-28T08:50:39.157Z,98586.67
2022-07-28T08:53:07.845Z,98585.02
2022-07-28T08:55:35.688Z,98576.30
2022-07-28T08:58:03.796Z,98578.50
2022-07-28T09:00:30.918Z,98568.91
2022-07-28T09:02:58.534Z,98566.82
2022-07-28T09:05:25.366Z,98559.49
2022-07-28T09:07:54.913Z,98564.29
2022-07-28T09:10:22.101Z,98562.10
2022-07-28T09:12:48.716Z,98561.63
2022-07-28T09:15:15.510Z,98561.39
2022-07-28T09:17:42.827Z,98563.54
2022-07-28T09:20:11.763Z,98563.05
2022-07-28T09:22:55.569Z,98557.80
2022-07-28T09:25:22.350Z,98561.65
2022-07-28T09:27:48.988Z,98564.45
2022-07-28T09:30:15.520Z,98564.74
2022-07-28T09:32:42.188Z,98561.75
2022-07-28T09:35:19.949Z,98557.27
2022-07-28T09:37:46.699Z,98559.66
2022-07-28T09:40:14.057Z,98557.30
2022-07-28T09:42:49.598Z,98561.42
2022-07-28T09:45:24.901Z,98560.43
2022-07-28T09:48:13.408Z,98560.96
2022-07-28T09:50:41.844Z,98553.61
2022-07-28T09:53:27.362Z,98555.13
2022-07-28T09:55:57.956Z,98553.73
2022-07-28T09:58:25.468Z,98556.27
2022-07-28T10:01:13.484Z,98555.06
2022-07-28T10:03:42.457Z,98549.87
2022-07-28T10:06:15.503Z,98552.89
2022-07-28T10:08:48.050Z,98548.18
2022-07-28T10:11:17.743Z,98546.80
2022-07-28T10:13:58.654Z,98547.27
2022-07-28T10:16:27.872Z,98547.52
2022-07-28T10:18:56.150Z,98547.11
2022-07-28T10:21:24.571Z,98549.73
2022-07-28T10:23:57.021Z,98547.98
2022-07-28T10:26:29.008Z,98546.65
2022-07-28T10:28:56.830Z,98546.05
2022-07-28T10:31:48.999Z,98542.23
2022-07-28T10:34:43.801Z,98538.59
2022-07-28T10:37:17.448Z,98531.19
2022-07-28T10:39:49.861Z,98538.19
2022-07-28T10:42:16.934Z,98538.70
2022-07-28T10:44:44.397Z,98535.66
2022-07-28T10:47:18.630Z,98536.44
2022-07-28T10:49:48.543Z,98535.36
2022-07-28T10:52:37.724Z,98537.48
2022-07-28T10:55:23.541Z,98537.63
2022-07-28T10:58:17.370Z,98532.39
2022-07-28T11:00:59.990Z,98528.48
2022-07-28T11:03:40.761Z,98527.22
2022-07-28T11:06:26.590Z,98524.67
2022-07-28T11:08:55.055Z,98524.89
2022-07-28T11:11:50.123Z,98523.91
2022-07-28T11:14:22.682Z,98517.73
2022-07-28T11:17:11.496Z,98519.15
2022-07-28T11:20:00.885Z,98525.37
2022-07-28T11:22:32.095Z,98516.89
2022-07-28T11:24:59.617Z,98517.48
2022-07-28T11:27:45.124Z,98516.27
2022-07-28T11:30:27.798Z,98517.52
2022-07-28T11:32:54.625Z,98520.39
2022-07-28T11:35:22.187Z,98519.17
2022-07-28T11:38:01.242Z,98521.80
2022-07-28T11:40:45.489Z,98517.13
2022-07-28T11:43:22.396Z,98513.56
2022-07-28T11:46:13.712Z,98514.77
2022-07-28T11:48:44.860Z,98515.64
2022-07-28T11:51:13.211Z,98509.08
2022-07-28T11:53:43.773Z,98507.59
2022-07-28T11:56:12.693Z,98506.64
2022-07-28T11:58:40.911Z,98500.71
2022-07-28T12:01:20.881Z,98498.73
2022-07-28T12:03:56.023Z,98498.27
2022-07-28T12:06:42.634Z,98496.99
2022-07-28T12:09:11.101Z,98497.86
2022-07-28T12:11:40.095Z,98496.16
2022-07-28T12:14:09.478Z,98496.88
2022-07-28T12:16:39.720Z,98493.55
2022-07-28T12:19:08.517Z,98494.59
2022-07-28T12:21:36.523Z,98494.48
2022-07-28T12:24:04.556Z,98487.86
2022-07-28T12:26:34.501Z,98478.47
2022-07-28T12:29:12.013Z,98478.15
2022-07-28T12:31:39.188Z,98478.89
2022-07-28T12:34:07.313Z,98483.86
2022-07-28T12:36:34.651Z,98483.38
2022-07-28T12:39:01.777Z,98479.29
2022-07-28T12:41:33.156Z,98479.11
2022-07-28T12:44:00.638Z,98475.26
2022-07-28T12:46:29.835Z,98476.64
2022-07-28T12:49:01.022Z,98468.85
2022-07-28T12:51:43.258Z,98471.93
2022-07-28T12:54:13.055Z,98475.64
2022-07-28T12:56:50.922Z,98470.41
2022-07-28T12:59:18.157Z,98469.08
2022-07-28T13:01:52.718Z,98469.66
2022-07-28T13:04:38.420Z,98468.58
2022-07-28T13:07:06.278Z,98475.23
2022-07-28T13:09:35.491Z,98473.98
2022-07-28T13:12:03.351Z,98470.70
2022-07-28T13:14:43.730Z,98467.16
2022-07-28T13:17:10.965Z,98473.50
2022-07-28T13:19:38.101Z,98467.63
2022-07-28T13:22:08.879Z,98465.97
2022-07-28T13:24:36.626Z,98464.79
2022-07-28T13:27:04.189Z,98455.42
2022-07-28T13:29:34.202Z,98458.14
2022-07-28T13:32:01.021Z,98460.55
2022-07-28T13:34:27.736Z,98466.38
2022-07-28T13:36:54.294Z,98468.90
2022-07-28T13:39:21.194Z,98469.61
2022-07-28T13:41:56.421Z,98464.97
2022-07-28T13:44:25.667Z,98466.31
2022-07-28T13:46:52.283Z,98468.76
2022-07-28T13:49:21.594Z,98465.32
2022-07-28T13:51:51.283Z,98460.86
2022-07-28T13:54:19.379Z,98460.44
2022-07-28T13:57:06.433Z,98465.23
2022-07-28T13:59:35.450Z,98455.15
2022-07-28T14:02:05.345Z,98451.11
2022-07-28T14:04:32.462Z,98443.52
2022-07-28T14:06:59.445Z,98451.13
2022-07-28T14:09:26.166Z,98450.04
2022-07-28T14:11:53.552Z,98445.93
2022-07-28T14:14:23.806Z,98442.37
2022-07-28T14:16:55.179Z,98447.11
2022-07-28T14:19:38.933Z,98449.24
2022-07-28T14:22:13.642Z,98444.08
2022-07-28T14:24:43.909Z,98454.08
2022-07-28T14:27:10.649Z,98451.87
2022-07-28T14:29:38.210Z,98455.98
2022-07-28T14:32:05.609Z,98455.90
2022-07-28T14:34:32.452Z,98460.24
2022-07-28T14:37:04.859Z,98463.15
2022-07-28T14:39:35.430Z,98458.33
2022-07-28T14:42:02.277Z,98454.34
2022-07-28T14:44:28.817Z,98454.75
2022-07-28T14:46:55.597Z,98449.98
2022-07-28T14:49:22.140Z,98453.23
2022-07-28T14:51:50.580Z,98447.35
2022-07-28T14:54:17.396Z,98440.66
2022-07-28T14:56:44.538Z,98438.96
2022-07-28T14:59:11.121Z,98438.52
2022-07-28T15:01:37.866Z,98438.52
2022-07-28T15:04:05.416Z,98439.49
2022-07-28T15:06:32.380Z,98433.79
2022-07-28T15:08:58.946Z,98431.63
2022-07-28T15:11:26.276Z,98431.91
2022-07-28T15:13:53.022Z,98436.54
2022-07-28T15:16:19.680Z,98432.15
2022-07-28T15:18:46.519Z,98427.32
2022-07-28T15:21:16.771Z,98426.38
2022-07-28T15:23:44.405Z,98433.56
2022-07-28T15:26:11.635Z,98429.23
2022-07-28T15:28:38.717Z,98429.04
2022-07-28T15:31:08.434Z,98426.45
2022-07-28T15:33:36.099Z,98425.17
2022-07-28T15:36:02.678Z,98423.75
2022-07-28T15:38:29.703Z,98424.73
2022-07-28T15:40:58.931Z,98425.55
2022-07-28T15:43:25.821Z,98425.88
2022-07-28T15:45:55.291Z,98417.08
2022-07-28T15:48:22.496Z,98413.92
2022-07-28T15:50:49.768Z,98414.80
2022-07-28T15:53:17.325Z,98421.80
2022-07-28T15:55:48.944Z,98426.25
2022-07-28T15:58:18.189Z,98425.20
2022-07-28T16:00:45.283Z,98425.67
2022-07-28T16:03:12.300Z,98426.89
2022-07-28T16:05:39.558Z,98424.27
2022-07-28T16:08:06.667Z,98425.67
2022-07-28T16:10:33.354Z,98421.23
2022-07-28T16:13:00.126Z,98422.23
2022-07-28T16:15:26.739Z,98426.95
2022-07-28T16:17:54.417Z,98429.48
2022-07-28T16:20:21.998Z,98429.72
2022-07-28T16:22:48.894Z,98424.58
2022-07-28T16:25:16.320Z,98419.52
2022-07-28T16:27:44.377Z,98420.31
2022-07-28T16:30:11.722Z,98427.34
2022-07-28T16:32:39.368Z,98430.55
2022-07-28T16:35:07.327Z,98430.14
2022-07-28T16:37:36.895Z,98430.55
2022-07-28T16:40:04.219Z,98427.10
2022-07-28T16:42:30.900Z,98431.24
2022-07-28T16:44:57.658Z,98434.77
2022-07-28T16:47:24.677Z,98432.24
2022-07-28T16:49:51.353Z,98438.13
2022-07-28T16:52:18.254Z,98431.98
2022-07-28T16:54:45.017Z,98433.38
2022-07-28T16:57:13.945Z,98432.73
2022-07-28T16:59:48.565Z,98432.02
2022-07-28T17:02:17.106Z,98430.45
2022-07-28T17:04:43.704Z,98429.14
2022-07-28T17:07:10.462Z,98434.43
2022-07-28T17:09:37.270Z,98434.94
2022-07-28T17:12:04.373Z,98437.40
2022-07-28T17:14:31.211Z,98439.64
2022-07-28T17:16:58.002Z,98441.02
2022-07-28T17:19:24.812Z,98441.79
2022-07-28T17:21:51.365Z,98439.84
2022-07-28T17:24:18.712Z,98443.64
2022-07-28T17:27:35.075Z,98441.47
2022-07-28T17:29:32.482Z,98443.18
2022-07-28T17:31:59.061Z,98444.96
2022-07-28T17:34:25.608Z,98443.38
2022-07-28T17:36:52.323Z,98443.55
2022-07-28T17:39:18.884Z,98446.11
2022-07-28T17:41:47.902Z,98447.20
2022-07-28T17:44:14.821Z,98444.33
2022-07-28T17:46:42.733Z,98448.27
2022-07-28T17:49:09.657Z,98448.41
2022-07-28T17:51:36.427Z,98449.45
2022-07-28T17:54:03.553Z,98451.78
2022-07-28T17:56:31.572Z,98455.14
2022-07-28T17:58:59.415Z,98453.03
2022-07-28T18:01:26.170Z,98457.29
2022-07-28T18:03:58.444Z,98457.06
2022-07-28T18:06:32.526Z,98463.88
2022-07-28T18:09:06.816Z,98464.76
2022-07-28T18:11:55.625Z,98467.77
2022-07-28T18:14:26.464Z,98467.70
2022-07-28T18:16:53.119Z,98472.13
2022-07-28T18:19:19.683Z,98472.47
2022-07-28T18:21:46.397Z,98469.36
2022-07-28T18:24:13.501Z,98467.28
2022-07-28T18:26:40.498Z,98468.11
2022-07-28T18:29:07.352Z,98466.86
2022-07-28T18:31:34.097Z,98474.16
2022-07-28T18:34:00.940Z,98476.67
2022-07-28T18:36:27.584Z,98476.77
2022-07-28T18:38:54.274Z,98482.75
2022-07-28T18:41:20.853Z,98486.30
2022-07-28T18:43:47.441Z,98487.52
2022-07-28T18:46:14.133Z,98488.84
2022-07-28T18:48:41.182Z,98490.13
2022-07-28T18:51:08.059Z,98490.75
2022-07-28T18:53:36.179Z,98489.90
2022-07-28T18:56:02.713Z,98496.55
2022-07-28T18:58:29.396Z,98495.08
2022-07-28T19:00:56.162Z,98495.41
2022-07-28T19:03:22.803Z,98496.48
2022-07-28T19:05:49.378Z,98502.57
2022-07-28T19:08:16.269Z,98500.80
2022-07-28T19:10:44.468Z,98508.32
2022-07-28T19:13:13.237Z,98510.91
2022-07-28T19:15:41.831Z,98512.32
2022-07-28T19:18:11.711Z,98515.77
2022-07-28T19:20:44.263Z,98517.80
2022-07-28T19:23:11.018Z,98516.46
2022-07-28T19:25:39.176Z,98518.10
2022-07-28T19:28:06.843Z,98513.75
2022-07-28T19:30:34.156Z,98518.77
2022-07-28T19:33:00.933Z,98516.75
2022-07-28T19:35:27.900Z,98518.48
2022-07-28T19:37:54.618Z,98517.42
2022-07-28T19:40:21.503Z,98517.65
2022-07-28T19:42:48.313Z,98518.23
2022-07-28T19:45:15.432Z,98515.73
2022-07-28T19:47:42.262Z,98520.16
2022-07-28T19:50:09.659Z,98522.02
2022-07-28T19:52:37.589Z,98521.15
2022-07-28T19:55:06.157Z,98516.27
2022-07-28T19:57:33.327Z,98513.90
2022-07-28T20:00:00.991Z,98514.57
2022-07-28T20:02:28.704Z,98513.95
2022-07-28T20:04:55.644Z,98514.61
2022-07-28T20:07:22.370Z,98520.88
2022-07-28T20:09:48.970Z,98522.17
2022-07-28T20:12:18.109Z,98526.08
2022-07-28T20:14:44.749Z,98533.05
2022-07-28T20:17:29.544Z,98532.15
2022-07-28T20:19:59.376Z,98531.91
2022-07-28T20:22:25.912Z,98528.73
2022-07-28T20:24:52.526Z,98530.38
2022-07-28T20:27:19.062Z,98531.89
2022-07-28T20:29:45.703Z,98532.88
2022-07-28T20:32:12.243Z,98534.00
2022-07-28T20:34:38.819Z,98533.87
2022-07-28T20:37:06.103Z,98535.86
2022-07-28T20:39:44.407Z,98538.85
2022-07-28T20:42:12.274Z,98539.30
2022-07-28T20:44:39.090Z,98536.96
2022-07-28T20:47:05.841Z,98538.54
2022-07-28T20:49:32.711Z,98540.67
2022-07-28T20:51:59.628Z,98542.80
2022-07-28T20:54:26.518Z,98538.88
2022-07-28T20:56:53.513Z,98538.73
2022-07-28T20:59:20.375Z,98545.55
2022-07-28T21:01:47.627Z,98549.08
2022-07-28T21:04:15.163Z,98551.26
2022-07-28T21:06:50.849Z,98548.98
2022-07-28T21:09:18.613Z,98548.03
2022-07-28T21:11:45.166Z,98546.95
2022-07-28T21:14:11.901Z,98543.75
2022-07-28T21:16:38.702Z,98547.15
2022-07-28T21:19:05.417Z,98547.20
2022-07-28T21:21:32.236Z,98548.23
2022-07-28T21:23:59.083Z,98551.83
2022-07-28T21:26:25.723Z,98558.04
2022-07-28T21:28:52.472Z,98558.20
2022-07-28T21:31:19.244Z,98561.30
2022-07-28T21:33:45.819Z,98564.43
2022-07-28T21:36:12.603Z,98568.55
2022-07-28T21:38:39.858Z,98568.64
2022-07-28T21:41:06.602Z,98568.36
2022-07-28T21:43:33.963Z,98572.55
2022-07-28T21:46:01.796Z,98567.69
2022-07-28T21:48:30.743Z,98569.17
2022-07-28T21:50:58.192Z,98573.23
2022-07-28T21:53:25.453Z,98580.13
2022-07-28T21:55:52.115Z,98578.53
2022-07-28T21:58:18.676Z,98576.53
2022-07-28T22:00:45.649Z,98581.30
2022-07-28T22:03:12.181Z,98581.92
2022-07-28T22:05:38.756Z,98581.02
2022-07-28T22:08:05.751Z,98585.48
2022-07-28T22:10:32.316Z,98587.27
2022-07-28T22:12:58.879Z,98583.88
2022-07-28T22:15:25.664Z,98575.98
2022-07-28T22:17:52.480Z,98572.08
2022-07-28T22:20:19.233Z,98576.69
2022-07-28T22:22:45.986Z,98581.86
2022-07-28T22:25:12.572Z,98590.38
2022-07-28T22:27:39.096Z,98587.73
2022-07-28T22:30:06.746Z,98588.59
2022-07-28T22:32:33.343Z,98589.79
2022-07-28T22:34:59.919Z,98588.27
2022-07-28T22:37:26.993Z,98592.06
2022-07-28T22:39:53.650Z,98589.38
2022-07-28T22:42:20.465Z,98585.51
2022-07-28T22:44:47.142Z,98590.19
2022-07-28T22:47:14.155Z,98587.90
2022-07-28T22:49:40.882Z,98586.82
2022-07-28T22:52:07.466Z,98591.92
2022-07-28T22:54:37.980Z,98591.92
2022-07-28T22:57:04.622Z,98591.44
2022-07-28T22:59:33.258Z,98591.80
2022-07-28T23:02:05.388Z,98590.23
2022-07-28T23:04:32.065Z,98592.27
2022-07-28T23:06:58.765Z,98593.73
2022-07-28T23:09:27.387Z,98590.86
2022-07-28T23:11:55.728Z,98590.54
2022-07-28T23:14:23.405Z,98588.30
2022-07-28T23:16:50.253Z,98589.65
2022-07-28T23:19:17.835Z,98591.02
2022-07-28T23:21:44.572Z,98594.67
2022-07-28T23:24:11.829Z,98588.92
2022-07-28T23:26:38.714Z,98587.68
2022-07-28T23:29:05.874Z,98586.93
2022-07-28T23:31:32.630Z,98589.82
2022-07-28T23:33:59.408Z,98586.26
2022-07-28T23:36:27.730Z,98586.05
2022-07-28T23:38:58.978Z,98583.02
2022-07-28T23:41:27.066Z,98582.45
2022-07-28T23:43:53.842Z,98582.13
2022-07-28T23:46:21.279Z,98580.39
2022-07-28T23:48:49.071Z,98580.20
2022-07-28T23:51:15.843Z,98578.28
2022-07-28T23:53:42.695Z,98578.21
2022-07-28T23:56:09.657Z,98578.67
2022-07-28T23:58:36.233Z,98577.64
